createdAt,value
2016-04-13T00:00:34.097Z,0
2016-04-13T00:01:34.100Z,0
2016-04-13T00:02:34.102Z,0
2016-04-13T00:03:34.105Z,0
2016-04-13T00:04:34.093Z,0
2016-04-13T00:05:34.095Z,0
2016-04-13T00:06:34.098Z,0
2016-04-13T00:07:34.100Z,0
2016-04-13T00:08:34.107Z,0
2016-04-13T00:09:34.110Z,0
2016-04-13T00:10:34.112Z,0
2016-04-13T00:11:34.100Z,0
2016-04-13T00:12:34.103Z,0
2016-04-13T00:13:34.105Z,0
2016-04-13T00:14:34.108Z,0
2016-04-13T00:15:34.095Z,0
2016-04-13T00:16:34.128Z,0
2016-04-13T00:17:34.100Z,0
2016-04-13T00:18:34.119Z,0
2016-04-13T00:19:34.105Z,0
2016-04-13T00:20:34.109Z,0
2016-04-13T00:21:34.097Z,0
2016-04-13T00:22:34.098Z,0
2016-04-13T00:23:34.102Z,0
2016-04-13T00:24:34.150Z,0
2016-04-13T00:25:34.107Z,0
2016-04-13T00:26:34.110Z,0
2016-04-13T00:27:34.112Z,0
2016-04-13T00:28:34.130Z,0
2016-04-13T00:29:34.102Z,0
2016-04-13T00:30:34.104Z,0
2016-04-13T00:31:34.123Z,0
2016-04-13T00:32:34.126Z,0
2016-04-13T00:33:34.112Z,0
2016-04-13T00:34:34.115Z,0
2016-04-13T00:35:34.102Z,0
2016-04-13T00:36:34.120Z,0
2016-04-13T00:37:34.123Z,0
2016-04-13T00:38:34.141Z,0
2016-04-13T00:39:34.112Z,0
2016-04-13T00:40:34.116Z,0
2016-04-13T00:41:34.306Z,0
2016-04-13T00:42:34.106Z,0
2016-04-13T00:43:34.108Z,0
2016-04-13T00:44:34.111Z,0
2016-04-13T00:45:34.114Z,0
2016-04-13T00:46:34.117Z,0
2016-04-13T00:47:34.103Z,0
2016-04-13T00:48:34.106Z,0
2016-04-13T00:49:34.109Z,0
2016-04-13T00:50:34.111Z,0
2016-04-13T00:51:34.113Z,0
2016-04-13T00:52:34.116Z,0
2016-04-13T00:53:33.978Z,0
2016-04-13T00:54:34.122Z,0
2016-04-13T00:55:34.124Z,0
2016-04-13T00:56:34.143Z,0
2016-04-13T00:57:34.146Z,0
2016-04-13T00:58:34.116Z,0
2016-04-13T00:59:34.119Z,0
2016-04-13T01:00:34.122Z,0
2016-04-13T01:01:34.109Z,0
2016-04-13T01:02:34.112Z,0
2016-04-13T01:03:34.115Z,0
2016-04-13T01:04:34.117Z,0
2016-04-13T01:05:34.120Z,0
2016-04-13T01:06:34.123Z,0
2016-04-13T01:07:33.954Z,0
2016-04-13T01:08:34.113Z,0
2016-04-13T01:09:34.116Z,0
2016-04-13T01:10:34.103Z,0
2016-04-13T01:11:34.120Z,0
2016-04-13T01:12:34.128Z,0
2016-04-13T01:13:34.130Z,0
2016-04-13T01:14:34.132Z,0
2016-04-13T01:15:34.119Z,0
2016-04-13T01:16:34.122Z,0
2016-04-13T01:17:34.109Z,0
2016-04-13T01:18:34.127Z,0
2016-04-13T01:19:34.146Z,0
2016-04-13T01:20:34.133Z,0
2016-04-13T01:21:34.121Z,0
2016-04-13T01:22:34.127Z,0
2016-04-13T01:23:34.130Z,0
2016-04-13T01:24:34.133Z,0
2016-04-13T01:25:34.119Z,0
2016-04-13T01:26:34.122Z,0
2016-04-13T01:27:34.125Z,0
2016-04-13T01:28:34.127Z,0
2016-04-13T01:29:33.958Z,0
2016-04-13T01:30:34.133Z,0
2016-04-13T01:31:34.135Z,0
2016-04-13T01:32:34.138Z,0
2016-04-13T01:33:34.422Z,0
2016-04-13T01:34:34.127Z,0
2016-04-13T01:35:34.146Z,0
2016-04-13T01:36:34.132Z,0
2016-04-13T01:37:34.135Z,0
2016-04-13T01:38:34.123Z,0
2016-04-13T01:39:34.141Z,0
2016-04-13T01:40:33.973Z,0
2016-04-13T01:41:33.975Z,0
2016-04-13T01:42:34.165Z,0
2016-04-13T01:43:34.121Z,0
2016-04-13T01:44:34.124Z,0
2016-04-13T01:45:34.126Z,0
2016-04-13T01:46:34.176Z,0
2016-04-13T01:47:34.132Z,0
2016-04-13T01:48:34.150Z,0
2016-04-13T01:49:34.168Z,0
2016-04-13T01:50:34.170Z,0
2016-04-13T01:51:34.142Z,0
2016-04-13T01:52:34.114Z,0
2016-04-13T01:53:34.116Z,0
2016-04-13T01:54:34.146Z,0
2016-04-13T01:55:34.191Z,0
2016-04-13T01:56:34.252Z,0
2016-04-13T01:57:34.284Z,0
2016-04-13T01:58:34.328Z,0
2016-04-13T01:59:34.352Z,0
2016-04-13T02:00:34.353Z,0
2016-04-13T02:01:34.388Z,0
2016-04-13T02:02:34.406Z,0
2016-04-13T02:03:34.407Z,0
2016-04-13T02:04:34.439Z,0
2016-04-13T02:05:34.417Z,0
2016-04-13T02:06:34.439Z,0
2016-04-13T02:07:34.448Z,0
2016-04-13T02:08:34.488Z,0
2016-04-13T02:09:34.447Z,0
2016-04-13T02:10:34.452Z,0
2016-04-13T02:11:34.457Z,0
2016-04-13T02:12:34.461Z,0
2016-04-13T02:13:34.467Z,0
2016-04-13T02:14:34.470Z,0
2016-04-13T02:15:34.458Z,0
2016-04-13T02:16:34.478Z,0
2016-04-13T02:17:34.465Z,0
2016-04-13T02:18:34.484Z,0
2016-04-13T02:19:34.471Z,0
2016-04-13T02:20:34.491Z,0
2016-04-13T02:21:34.572Z,0
2016-04-13T02:22:34.481Z,0
2016-04-13T02:23:34.484Z,0
2016-04-13T02:24:34.471Z,0
2016-04-13T02:25:34.490Z,0
2016-04-13T02:26:34.164Z,0
2016-04-13T02:27:34.308Z,0
2016-04-13T02:28:34.467Z,0
2016-04-13T02:29:34.470Z,0
2016-04-13T02:30:34.473Z,0
2016-04-13T02:31:34.475Z,0
2016-04-13T02:32:34.478Z,0
2016-04-13T02:33:34.465Z,0
2016-04-13T02:34:34.467Z,0
2016-04-13T02:35:34.486Z,0
2016-04-13T02:36:34.473Z,0
2016-04-13T02:37:34.475Z,0
2016-04-13T02:38:34.494Z,0
2016-04-13T02:39:34.481Z,0
2016-04-13T02:40:34.483Z,0
2016-04-13T02:41:34.471Z,0
2016-04-13T02:42:34.474Z,0
2016-04-13T02:43:34.476Z,0
2016-04-13T02:44:34.493Z,0
2016-04-13T02:45:34.481Z,0
2016-04-13T02:46:34.469Z,0
2016-04-13T02:47:34.471Z,0
2016-04-13T02:48:34.474Z,0
2016-04-13T02:49:34.476Z,0
2016-04-13T02:50:34.479Z,0
2016-04-13T02:51:34.560Z,0
2016-04-13T02:52:34.484Z,0
2016-04-13T02:53:34.487Z,0
2016-04-13T02:54:34.489Z,0
2016-04-13T02:55:34.476Z,0
2016-04-13T02:56:34.479Z,0
2016-04-13T02:57:34.481Z,0
2016-04-13T02:58:34.484Z,0
2016-04-13T02:59:34.487Z,0
2016-04-13T03:00:34.475Z,0
2016-04-13T03:01:34.478Z,0
2016-04-13T03:02:34.495Z,0
2016-04-13T03:03:34.483Z,0
2016-04-13T03:04:34.470Z,0
2016-04-13T03:05:34.489Z,0
2016-04-13T03:06:34.522Z,0
2016-04-13T03:07:34.478Z,0
2016-04-13T03:08:34.480Z,0
2016-04-13T03:09:34.483Z,0
2016-04-13T03:10:34.486Z,0
2016-04-13T03:11:34.488Z,0
2016-04-13T03:12:34.522Z,0
2016-04-13T03:13:34.493Z,0
2016-04-13T03:14:34.481Z,0
2016-04-13T03:15:34.328Z,0
2016-04-13T03:16:34.502Z,0
2016-04-13T03:17:34.489Z,0
2016-04-13T03:18:34.491Z,0
2016-04-13T03:19:34.479Z,0
2016-04-13T03:20:34.482Z,0
2016-04-13T03:21:34.625Z,0
2016-04-13T03:22:34.502Z,0
2016-04-13T03:23:34.489Z,0
2016-04-13T03:24:34.476Z,0
2016-04-13T03:25:34.323Z,0
2016-04-13T03:26:34.497Z,0
2016-04-13T03:27:34.500Z,0
2016-04-13T03:28:34.487Z,0
2016-04-13T03:29:34.490Z,0
2016-04-13T03:30:34.493Z,0
2016-04-13T03:31:34.480Z,0
2016-04-13T03:32:34.483Z,0
2016-04-13T03:33:34.501Z,0
2016-04-13T03:34:34.488Z,0
2016-04-13T03:35:34.491Z,0
2016-04-13T03:36:34.712Z,0
2016-04-13T03:37:34.480Z,0
2016-04-13T03:38:34.483Z,0
2016-04-13T03:39:34.502Z,0
2016-04-13T03:40:34.493Z,0
2016-04-13T03:41:34.496Z,0
2016-04-13T03:42:34.498Z,0
2016-04-13T03:43:34.502Z,0
2016-04-13T03:44:34.504Z,0
2016-04-13T03:45:34.335Z,0
2016-04-13T03:46:34.478Z,0
2016-04-13T03:47:34.481Z,0
2016-04-13T03:48:34.484Z,0
2016-04-13T03:49:34.486Z,0
2016-04-13T03:50:34.504Z,0
2016-04-13T03:51:34.976Z,0
2016-04-13T03:52:34.494Z,0
2016-04-13T03:53:34.481Z,0
2016-04-13T03:54:34.484Z,0
2016-04-13T03:55:34.487Z,0
2016-04-13T03:56:34.489Z,0
2016-04-13T03:57:34.492Z,0
2016-04-13T03:58:34.511Z,0
2016-04-13T03:59:34.498Z,0
2016-04-13T04:00:34.484Z,0
2016-04-13T04:01:34.503Z,0
2016-04-13T04:02:34.489Z,0
2016-04-13T04:03:34.492Z,0
2016-04-13T04:04:34.495Z,0
2016-04-13T04:05:34.482Z,0
2016-04-13T04:06:34.875Z,0
2016-04-13T04:07:34.488Z,0
2016-04-13T04:08:34.491Z,0
2016-04-13T04:09:34.493Z,0
2016-04-13T04:10:34.496Z,0
2016-04-13T04:11:34.499Z,0
2016-04-13T04:12:34.486Z,0
2016-04-13T04:13:34.489Z,0
2016-04-13T04:14:34.491Z,0
2016-04-13T04:15:34.510Z,0
2016-04-13T04:16:34.496Z,0
2016-04-13T04:17:34.515Z,0
2016-04-13T04:18:34.486Z,0
2016-04-13T04:19:34.488Z,0
2016-04-13T04:20:34.491Z,0
2016-04-13T04:21:34.322Z,0
2016-04-13T04:22:34.481Z,0
2016-04-13T04:23:34.515Z,0
2016-04-13T04:24:34.487Z,0
2016-04-13T04:25:34.489Z,0
2016-04-13T04:26:34.492Z,0
2016-04-13T04:27:34.495Z,0
2016-04-13T04:28:34.482Z,0
2016-04-13T04:29:34.500Z,0
2016-04-13T04:30:34.487Z,0
2016-04-13T04:31:34.521Z,0
2016-04-13T04:32:34.524Z,0
2016-04-13T04:33:34.495Z,0
2016-04-13T04:34:34.483Z,0
2016-04-13T04:35:34.485Z,0
2016-04-13T04:36:34.425Z,0
2016-04-13T04:37:34.491Z,0
2016-04-13T04:38:34.493Z,0
2016-04-13T04:39:34.511Z,0
2016-04-13T04:40:34.499Z,0
2016-04-13T04:41:34.517Z,0
2016-04-13T04:42:34.520Z,0
2016-04-13T04:43:34.507Z,5
2016-04-13T04:44:34.494Z,5
2016-04-13T04:45:34.496Z,5
2016-04-13T04:46:34.499Z,5
2016-04-13T04:47:34.485Z,5
2016-04-13T04:48:34.504Z,5
2016-04-13T04:49:34.491Z,5
2016-04-13T04:50:34.510Z,5
2016-04-13T04:51:34.528Z,10
2016-04-13T04:52:34.499Z,10
2016-04-13T04:53:34.486Z,10
2016-04-13T04:54:34.489Z,10
2016-04-13T04:55:34.507Z,10
2016-04-13T04:56:34.495Z,10
2016-04-13T04:57:34.498Z,15
2016-04-13T04:58:34.501Z,15
2016-04-13T04:59:34.503Z,15
2016-04-13T05:00:34.506Z,15
2016-04-13T05:01:34.492Z,15
2016-04-13T05:02:34.511Z,15
2016-04-13T05:03:34.498Z,20
2016-04-13T05:04:34.500Z,20
2016-04-13T05:05:34.503Z,20
2016-04-13T05:06:34.584Z,20
2016-04-13T05:07:34.492Z,20
2016-04-13T05:08:34.511Z,20
2016-04-13T05:09:34.514Z,25
2016-04-13T05:10:34.517Z,25
2016-04-13T05:11:34.503Z,25
2016-04-13T05:12:34.506Z,25
2016-04-13T05:13:34.493Z,25
2016-04-13T05:14:34.511Z,25
2016-04-13T05:15:34.498Z,30
2016-04-13T05:16:34.501Z,30
2016-04-13T05:17:34.582Z,35
2016-04-13T05:18:34.507Z,35
2016-04-13T05:19:34.510Z,40
2016-04-13T05:20:34.512Z,45
2016-04-13T05:21:34.500Z,45
2016-04-13T05:22:34.517Z,45
2016-04-13T05:23:34.504Z,50
2016-04-13T05:24:34.492Z,55
2016-04-13T05:25:34.510Z,55
2016-04-13T05:26:34.498Z,55
2016-04-13T05:27:34.500Z,50
2016-04-13T05:28:34.518Z,45
2016-04-13T05:29:34.537Z,45
2016-04-13T05:30:34.508Z,50
2016-04-13T05:31:34.526Z,55
2016-04-13T05:32:34.528Z,60
2016-04-13T05:33:34.517Z,65
2016-04-13T05:34:34.503Z,70
2016-04-13T05:35:34.506Z,85
2016-04-13T05:36:34.539Z,90
2016-04-13T05:37:34.511Z,95
2016-04-13T05:38:34.497Z,105
2016-04-13T05:39:34.517Z,100
2016-04-13T05:40:34.519Z,105
2016-04-13T05:41:34.506Z,290
2016-04-13T05:42:34.508Z,260
2016-04-13T05:43:34.511Z,100
2016-04-13T05:44:34.499Z,95
2016-04-13T05:45:34.516Z,95
2016-04-13T05:46:34.519Z,245
2016-04-13T05:47:34.507Z,315
2016-04-13T05:48:34.524Z,305
2016-04-13T05:49:34.512Z,310
2016-04-13T05:50:34.515Z,345
2016-04-13T05:51:34.517Z,340
2016-04-13T05:52:34.520Z,190
2016-04-13T05:53:34.508Z,205
2016-04-13T05:54:34.573Z,355
2016-04-13T05:55:34.512Z,360
2016-04-13T05:56:34.515Z,370
2016-04-13T05:57:34.518Z,370
2016-04-13T05:58:34.521Z,385
2016-04-13T05:59:34.539Z,395
2016-04-13T06:00:34.542Z,400
2016-04-13T06:01:34.529Z,390
2016-04-13T06:02:34.531Z,390
2016-04-13T06:03:34.534Z,400
2016-04-13T06:04:34.536Z,405
2016-04-13T06:05:34.540Z,405
2016-04-13T06:06:34.542Z,420
2016-04-13T06:07:34.529Z,425
2016-04-13T06:08:34.548Z,430
2016-04-13T06:09:34.550Z,440
2016-04-13T06:10:34.537Z,460
2016-04-13T06:11:34.556Z,460
2016-04-13T06:12:34.559Z,440
2016-04-13T06:13:34.545Z,455
2016-04-13T06:14:34.563Z,455
2016-04-13T06:15:34.566Z,480
2016-04-13T06:16:34.569Z,495
2016-04-13T06:17:34.571Z,515
2016-04-13T06:18:34.574Z,510
2016-04-13T06:19:34.577Z,520
2016-04-13T06:20:34.580Z,535
2016-04-13T06:21:34.582Z,555
2016-04-13T06:22:34.586Z,540
2016-04-13T06:23:34.588Z,550
2016-04-13T06:24:34.590Z,480
2016-04-13T06:25:34.593Z,510
2016-04-13T06:26:34.612Z,535
2016-04-13T06:27:34.615Z,480
2016-04-13T06:28:34.679Z,420
2016-04-13T06:29:34.617Z,450
2016-04-13T06:30:34.620Z,485
2016-04-13T06:31:34.623Z,510
2016-04-13T06:32:34.640Z,480
2016-04-13T06:33:34.628Z,435
2016-04-13T06:34:34.645Z,405
2016-04-13T06:35:34.648Z,420
2016-04-13T06:36:34.651Z,505
2016-04-13T06:37:34.669Z,480
2016-04-13T06:38:34.657Z,495
2016-04-13T06:39:34.675Z,555
2016-04-13T06:40:34.677Z,560
2016-04-13T06:41:34.681Z,575
2016-04-13T06:42:34.683Z,505
2016-04-13T06:43:34.686Z,585
2016-04-13T06:44:34.704Z,605
2016-04-13T06:45:34.691Z,525
2016-04-13T06:46:34.725Z,570
2016-04-13T06:47:34.713Z,595
2016-04-13T06:48:34.715Z,300
2016-04-13T06:49:34.718Z,505
2016-04-13T06:50:35.204Z,210
2016-04-13T06:51:34.739Z,200
2016-04-13T06:52:34.741Z,550
2016-04-13T06:53:34.744Z,460
2016-04-13T06:54:34.746Z,700
2016-04-13T06:55:34.765Z,685
2016-04-13T06:56:34.752Z,680
2016-04-13T06:57:34.771Z,725
2016-04-13T06:58:34.788Z,670
2016-04-13T06:59:34.776Z,730
2016-04-13T07:00:34.779Z,295
2016-04-13T07:01:34.796Z,750
2016-04-13T07:02:34.784Z,745
2016-04-13T07:03:34.818Z,575
2016-04-13T07:04:34.804Z,195
2016-04-13T07:05:35.011Z,190
2016-04-13T07:06:34.826Z,500
2016-04-13T07:07:34.828Z,770
2016-04-13T07:08:34.847Z,425
2016-04-13T07:09:34.833Z,720
2016-04-13T07:10:35.117Z,755
2016-04-13T07:11:34.855Z,795
2016-04-13T07:12:34.857Z,785
2016-04-13T07:13:34.860Z,825
2016-04-13T07:14:34.878Z,855
2016-04-13T07:15:34.881Z,435
2016-04-13T07:16:34.884Z,635
2016-04-13T07:17:34.902Z,885
2016-04-13T07:18:34.889Z,425
2016-04-13T07:19:34.908Z,870
2016-04-13T07:20:34.926Z,685
2016-04-13T07:21:34.914Z,790
2016-04-13T07:22:34.916Z,825
2016-04-13T07:23:34.919Z,875
2016-04-13T07:24:34.938Z,460
2016-04-13T07:25:34.955Z,815
2016-04-13T07:26:34.958Z,795
2016-04-13T07:27:34.960Z,850
2016-04-13T07:28:34.948Z,545
2016-04-13T07:29:34.982Z,855
2016-04-13T07:30:35.015Z,785
2016-04-13T07:31:34.987Z,630
2016-04-13T07:32:34.989Z,665
2016-04-13T07:33:34.992Z,900
2016-04-13T07:34:35.557Z,845
2016-04-13T07:35:35.012Z,845
2016-04-13T07:36:35.032Z,880
2016-04-13T07:37:35.018Z,855
2016-04-13T07:38:35.037Z,920
2016-04-13T07:39:35.040Z,935
2016-04-13T07:40:34.886Z,910
2016-04-13T07:41:35.061Z,945
2016-04-13T07:42:35.064Z,945
2016-04-13T07:43:35.081Z,920
2016-04-13T07:44:35.084Z,915
2016-04-13T07:45:35.086Z,940
2016-04-13T07:46:35.089Z,1015
2016-04-13T07:47:35.092Z,1000
2016-04-13T07:48:35.094Z,1020
2016-04-13T07:49:35.113Z,1055
2016-04-13T07:50:35.132Z,945
2016-04-13T07:51:35.119Z,250
2016-04-13T07:52:35.184Z,340
2016-04-13T07:53:35.140Z,255
2016-04-13T07:54:35.158Z,355
2016-04-13T07:55:35.160Z,970
2016-04-13T07:56:35.179Z,820
2016-04-13T07:57:35.182Z,255
2016-04-13T07:58:35.199Z,245
2016-04-13T07:59:35.203Z,300
2016-04-13T08:00:35.190Z,815
2016-04-13T08:01:35.193Z,575
2016-04-13T08:02:35.227Z,355
2016-04-13T08:03:35.213Z,885
2016-04-13T08:04:35.232Z,825
2016-04-13T08:05:35.234Z,940
2016-04-13T08:06:35.253Z,975
2016-04-13T08:07:35.256Z,920
2016-04-13T08:08:35.263Z,910
2016-04-13T08:09:35.266Z,920
2016-04-13T08:10:35.268Z,930
2016-04-13T08:11:35.271Z,965
2016-04-13T08:12:35.274Z,930
2016-04-13T08:13:35.276Z,905
2016-04-13T08:14:35.280Z,895
2016-04-13T08:15:35.297Z,805
2016-04-13T08:16:35.316Z,900
2016-04-13T08:17:35.303Z,500
2016-04-13T08:18:35.305Z,415
2016-04-13T08:19:35.324Z,335
2016-04-13T08:20:35.327Z,420
2016-04-13T08:21:35.344Z,995
2016-04-13T08:22:35.660Z,910
2016-04-13T08:23:35.350Z,910
2016-04-13T08:24:35.213Z,965
2016-04-13T08:25:35.372Z,1055
2016-04-13T08:26:35.374Z,970
2016-04-13T08:27:35.393Z,565
2016-04-13T08:28:35.395Z,365
2016-04-13T08:29:35.398Z,285
2016-04-13T08:30:35.401Z,245
2016-04-13T08:31:35.403Z,280
2016-04-13T08:32:35.406Z,250
2016-04-13T08:33:35.251Z,235
2016-04-13T08:34:35.426Z,240
2016-04-13T08:35:35.429Z,240
2016-04-13T08:36:35.447Z,245
2016-04-13T08:37:35.435Z,250
2016-04-13T08:38:35.453Z,270
2016-04-13T08:39:35.456Z,290
2016-04-13T08:40:35.458Z,285
2016-04-13T08:41:35.680Z,300
2016-04-13T08:42:35.480Z,305
2016-04-13T08:43:35.482Z,305
2016-04-13T08:44:35.485Z,300
2016-04-13T08:45:35.502Z,285
2016-04-13T08:46:35.490Z,285
2016-04-13T08:47:35.508Z,275
2016-04-13T08:48:35.589Z,260
2016-04-13T08:49:35.514Z,255
2016-04-13T08:50:35.517Z,250
2016-04-13T08:51:35.394Z,245
2016-04-13T08:52:35.569Z,250
2016-04-13T08:53:35.555Z,230
2016-04-13T08:54:35.558Z,230
2016-04-13T08:55:35.546Z,240
2016-04-13T08:56:35.564Z,250
2016-04-13T08:57:35.567Z,240
2016-04-13T08:58:35.569Z,255
2016-04-13T08:59:35.588Z,255
2016-04-13T09:00:35.590Z,245
2016-04-13T09:01:35.593Z,230
2016-04-13T09:02:35.612Z,225
2016-04-13T09:03:35.598Z,205
2016-04-13T09:04:35.617Z,225
2016-04-13T09:05:35.603Z,220
2016-04-13T09:06:35.606Z,225
2016-04-13T09:07:35.687Z,220
2016-04-13T09:08:35.659Z,215
2016-04-13T09:09:35.614Z,200
2016-04-13T09:10:35.633Z,200
2016-04-13T09:11:35.651Z,200
2016-04-13T09:12:35.653Z,200
2016-04-13T09:13:35.641Z,205
2016-04-13T09:14:35.644Z,210
2016-04-13T09:15:35.647Z,210
2016-04-13T09:16:35.649Z,210
2016-04-13T09:17:35.667Z,205
2016-04-13T09:18:35.669Z,205
2016-04-13T09:19:35.672Z,205
2016-04-13T09:20:35.675Z,210
2016-04-13T09:21:35.694Z,215
2016-04-13T09:22:35.916Z,220
2016-04-13T09:23:35.699Z,225
2016-04-13T09:24:35.702Z,225
2016-04-13T09:25:35.704Z,245
2016-04-13T09:26:35.723Z,245
2016-04-13T09:27:35.710Z,245
2016-04-13T09:28:35.729Z,265
2016-04-13T09:29:35.732Z,245
2016-04-13T09:30:35.734Z,265
2016-04-13T09:31:35.737Z,280
2016-04-13T09:32:35.739Z,270
2016-04-13T09:33:35.867Z,255
2016-04-13T09:34:35.744Z,265
2016-04-13T09:35:35.762Z,260
2016-04-13T09:36:35.765Z,240
2016-04-13T09:37:35.845Z,225
2016-04-13T09:38:35.771Z,220
2016-04-13T09:39:35.773Z,220
2016-04-13T09:40:35.792Z,225
2016-04-13T09:41:35.778Z,225
2016-04-13T09:42:35.797Z,215
2016-04-13T09:43:35.800Z,190
2016-04-13T09:44:35.802Z,180
2016-04-13T09:45:35.805Z,180
2016-04-13T09:46:35.808Z,175
2016-04-13T09:47:35.810Z,175
2016-04-13T09:48:35.828Z,180
2016-04-13T09:49:35.831Z,180
2016-04-13T09:50:35.834Z,185
2016-04-13T09:51:35.822Z,185
2016-04-13T09:52:35.918Z,190
2016-04-13T09:53:35.842Z,200
2016-04-13T09:54:36.366Z,215
2016-04-13T09:55:35.811Z,230
2016-04-13T09:56:35.876Z,235
2016-04-13T09:57:35.863Z,240
2016-04-13T09:58:37.054Z,240
2016-04-13T09:59:35.947Z,240
2016-04-13T10:00:36.036Z,230
2016-04-13T10:01:35.880Z,215
2016-04-13T10:02:35.742Z,200
2016-04-13T10:03:35.886Z,185
2016-04-13T10:04:35.912Z,175
2016-04-13T10:05:35.882Z,160
2016-04-13T10:06:35.995Z,135
2016-04-13T10:07:36.106Z,120
2016-04-13T10:08:35.922Z,110
2016-04-13T10:09:35.908Z,105
2016-04-13T10:10:35.911Z,105
2016-04-13T10:11:35.945Z,110
2016-04-13T10:12:38.810Z,105
2016-04-13T10:13:55.922Z,105
2016-04-13T10:14:53.628Z,105
2016-04-13T10:15:51.458Z,105
2016-04-13T10:16:41.833Z,105
2016-04-13T10:17:35.947Z,105
2016-04-13T10:18:35.980Z,115
2016-04-13T10:19:35.952Z,120
2016-04-13T10:20:35.830Z,130
2016-04-13T10:21:35.972Z,140
2016-04-13T10:22:36.131Z,150
2016-04-13T10:23:35.978Z,155
2016-04-13T10:24:35.965Z,155
2016-04-13T10:25:35.983Z,160
2016-04-13T10:26:36.002Z,155
2016-04-13T10:27:36.004Z,150
2016-04-13T10:28:36.022Z,145
2016-04-13T10:29:35.994Z,145
2016-04-13T10:30:35.785Z,145
2016-04-13T10:31:36.022Z,140
2016-04-13T10:32:36.009Z,135
2016-04-13T10:33:35.996Z,130
2016-04-13T10:34:36.014Z,125
2016-04-13T10:35:36.017Z,130
2016-04-13T10:36:36.020Z,135
2016-04-13T10:37:36.256Z,135
2016-04-13T10:38:36.023Z,140
2016-04-13T10:39:36.026Z,145
2016-04-13T10:40:36.060Z,155
2016-04-13T10:41:36.047Z,165
2016-04-13T10:42:36.050Z,180
2016-04-13T10:43:36.053Z,180
2016-04-13T10:44:36.056Z,180
2016-04-13T10:45:36.073Z,175
2016-04-13T10:46:36.060Z,180
2016-04-13T10:47:36.078Z,165
2016-04-13T10:48:36.081Z,150
2016-04-13T10:49:36.069Z,125
2016-04-13T10:50:36.086Z,105
2016-04-13T10:51:36.089Z,90
2016-04-13T10:52:36.279Z,75
2016-04-13T10:53:36.079Z,65
2016-04-13T10:54:36.082Z,55
2016-04-13T10:55:43.913Z,45
2016-04-13T10:56:54.137Z,40
2016-04-13T10:58:11.546Z,35
2016-04-13T10:58:52.877Z,30
2016-04-13T10:59:56.676Z,35
2016-04-13T11:01:07.813Z,30
2016-04-13T11:01:57.674Z,20
2016-04-13T11:03:03.471Z,15
2016-04-13T11:04:16.063Z,10
2016-04-13T11:06:59.478Z,20
2016-04-13T11:08:02.074Z,20
2016-04-13T11:10:20.755Z,25
2016-04-13T11:11:40.984Z,30
2016-04-13T11:12:26.664Z,35
2016-04-13T11:13:34.391Z,40
2016-04-13T11:14:54.101Z,45
2016-04-13T11:15:42.719Z,50
2016-04-13T11:16:53.459Z,55
2016-04-13T11:18:04.307Z,65
2016-04-13T11:18:59.186Z,80
2016-04-13T11:19:30.160Z,85
2016-04-13T11:20:34.103Z,110
2016-04-13T11:22:42.499Z,175
2016-04-13T11:23:42.347Z,215
2016-04-13T11:24:42.335Z,240
2016-04-13T11:25:42.338Z,250
2016-04-13T11:26:42.341Z,245
2016-04-13T11:27:42.360Z,245
2016-04-13T11:28:42.191Z,245
2016-04-13T11:29:42.351Z,250
2016-04-13T11:30:42.354Z,250
2016-04-13T11:31:42.356Z,235
2016-04-13T11:32:42.358Z,220
2016-04-13T11:33:42.362Z,210
2016-04-13T11:34:42.380Z,210
2016-04-13T11:35:42.367Z,210
2016-04-13T11:36:42.386Z,210
2016-04-13T11:37:42.372Z,200
2016-04-13T11:38:42.422Z,195
2016-04-13T11:39:42.377Z,185
2016-04-13T11:40:42.396Z,180
2016-04-13T11:41:42.399Z,175
2016-04-13T11:42:42.401Z,170
2016-04-13T11:43:42.404Z,165
2016-04-13T11:44:42.407Z,160
2016-04-13T11:45:42.409Z,165
2016-04-13T11:46:42.413Z,170
2016-04-13T11:47:42.415Z,180
2016-04-13T11:48:42.418Z,190
2016-04-13T11:49:42.437Z,180
2016-04-13T11:50:42.423Z,170
2016-04-13T11:51:42.441Z,170
2016-04-13T11:52:42.428Z,165
2016-04-13T11:53:42.447Z,160
2016-04-13T11:54:42.434Z,140
2016-04-13T11:55:42.453Z,135
2016-04-13T11:56:42.283Z,130
2016-04-13T11:57:42.458Z,120
2016-04-13T11:58:42.444Z,110
2016-04-13T11:59:42.447Z,105
2016-04-13T12:00:42.450Z,95
2016-04-13T12:01:42.469Z,85
2016-04-13T12:02:42.471Z,85
2016-04-13T12:03:42.489Z,80
2016-04-13T12:04:42.461Z,75
2016-04-13T12:05:42.480Z,70
2016-04-13T12:06:42.482Z,65
2016-04-13T12:07:42.485Z,55
2016-04-13T12:08:42.488Z,55
2016-04-13T12:09:42.491Z,55
2016-04-13T12:10:42.494Z,55
2016-04-13T12:11:42.497Z,55
2016-04-13T12:12:42.499Z,55
2016-04-13T12:13:42.502Z,60
2016-04-13T12:14:42.520Z,60
2016-04-13T12:15:42.508Z,60
2016-04-13T12:16:42.525Z,60
2016-04-13T12:17:42.513Z,60
2016-04-13T12:18:42.671Z,60
2016-04-13T12:19:42.533Z,60
2016-04-13T12:20:42.536Z,60
2016-04-13T12:21:42.523Z,55
2016-04-13T12:22:42.526Z,55
2016-04-13T12:23:42.544Z,50
2016-04-13T12:24:42.546Z,45
2016-04-13T12:25:42.534Z,45
2016-04-13T12:26:42.537Z,45
2016-04-13T12:27:42.555Z,45
2016-04-13T12:28:42.604Z,50
2016-04-13T12:29:42.545Z,55
2016-04-13T12:30:42.845Z,60
2016-04-13T12:31:42.550Z,65
2016-04-13T12:32:42.569Z,70
2016-04-13T12:33:42.556Z,75
2016-04-13T12:34:42.559Z,75
2016-04-13T12:35:42.576Z,75
2016-04-13T12:36:42.563Z,75
2016-04-13T12:37:42.567Z,80
2016-04-13T12:38:42.584Z,80
2016-04-13T12:39:42.587Z,80
2016-04-13T12:40:42.622Z,75
2016-04-13T12:41:42.578Z,75
2016-04-13T12:42:42.580Z,70
2016-04-13T12:43:42.598Z,65
2016-04-13T12:44:42.600Z,65
2016-04-13T12:45:42.603Z,65
2016-04-13T12:46:42.606Z,65
2016-04-13T12:47:42.608Z,65
2016-04-13T12:48:42.611Z,70
2016-04-13T12:49:42.599Z,70
2016-04-13T12:50:42.617Z,70
2016-04-13T12:51:42.620Z,65
2016-04-13T12:52:42.622Z,60
2016-04-13T12:53:42.609Z,50
2016-04-13T12:54:42.627Z,45
2016-04-13T12:55:42.630Z,40
2016-04-13T12:56:42.633Z,40
2016-04-13T12:57:42.636Z,40
2016-04-13T12:58:42.638Z,35
2016-04-13T12:59:42.641Z,35
2016-04-13T13:00:42.643Z,35
2016-04-13T13:01:42.646Z,30
2016-04-13T13:02:42.649Z,25
2016-04-13T13:03:42.637Z,25
2016-04-13T13:04:42.640Z,25
2016-04-13T13:05:42.657Z,25
2016-04-13T13:06:42.659Z,25
2016-04-13T13:07:42.662Z,30
2016-04-13T13:08:42.650Z,35
2016-04-13T13:09:42.668Z,35
2016-04-13T13:10:42.655Z,40
2016-04-13T13:11:42.658Z,40
2016-04-13T13:12:42.660Z,50
2016-04-13T13:13:42.664Z,55
2016-04-13T13:14:42.681Z,65
2016-04-13T13:15:42.684Z,75
2016-04-13T13:16:42.672Z,80
2016-04-13T13:17:42.689Z,75
2016-04-13T13:18:42.677Z,70
2016-04-13T13:19:42.695Z,65
2016-04-13T13:20:42.682Z,65
2016-04-13T13:21:42.685Z,65
2016-04-13T13:22:42.703Z,75
2016-04-13T13:23:42.690Z,85
2016-04-13T13:24:42.693Z,85
2016-04-13T13:25:42.710Z,85
2016-04-13T13:26:42.713Z,80
2016-04-13T13:27:42.716Z,80
2016-04-13T13:28:42.719Z,75
2016-04-13T13:29:42.706Z,75
2016-04-13T13:30:42.709Z,70
2016-04-13T13:31:42.712Z,70
2016-04-13T13:32:42.558Z,70
2016-04-13T13:33:42.717Z,70
2016-04-13T13:34:42.720Z,75
2016-04-13T13:35:42.738Z,85
2016-04-13T13:36:42.726Z,90
2016-04-13T13:37:42.743Z,90
2016-04-13T13:38:42.731Z,95
2016-04-13T13:39:42.733Z,105
2016-04-13T13:40:42.736Z,115
2016-04-13T13:41:42.739Z,125
2016-04-13T13:42:42.725Z,130
2016-04-13T13:43:42.744Z,130
2016-04-13T13:44:42.746Z,130
2016-04-13T13:45:42.750Z,120
2016-04-13T13:46:42.752Z,115
2016-04-13T13:47:42.738Z,105
2016-04-13T13:48:42.757Z,100
2016-04-13T13:49:42.760Z,95
2016-04-13T13:50:42.747Z,95
2016-04-13T13:51:42.765Z,90
2016-04-13T13:52:42.752Z,95
2016-04-13T13:53:42.771Z,95
2016-04-13T13:54:42.758Z,95
2016-04-13T13:55:42.760Z,95
2016-04-13T13:56:42.763Z,85
2016-04-13T13:57:42.782Z,85
2016-04-13T13:58:42.769Z,80
2016-04-13T13:59:42.787Z,80
2016-04-13T14:00:42.774Z,85
2016-04-13T14:01:42.777Z,90
2016-04-13T14:02:42.795Z,95
2016-04-13T14:03:42.813Z,100
2016-04-13T14:04:42.784Z,90
2016-04-13T14:05:42.803Z,85
2016-04-13T14:06:42.821Z,80
2016-04-13T14:07:42.793Z,80
2016-04-13T14:08:42.842Z,75
2016-04-13T14:09:42.829Z,70
2016-04-13T14:10:42.816Z,65
2016-04-13T14:11:42.803Z,60
2016-04-13T14:12:42.807Z,60
2016-04-13T14:13:42.809Z,60
2016-04-13T14:14:42.811Z,60
2016-04-13T14:15:42.814Z,65
2016-04-13T14:16:42.800Z,70
2016-04-13T14:17:42.804Z,75